createdAt,value
2019-01-08T00:00:40.818Z,13.10
2019-01-08T00:03:45.673Z,12.07
2019-01-08T00:06:50.477Z,13.87
2019-01-08T00:09:55.343Z,13.70
2019-01-08T00:13:00.156Z,12.30
2019-01-08T00:16:05.192Z,13.30
2019-01-08T00:19:10.016Z,13.27
2019-01-08T00:22:14.878Z,12.73
2019-01-08T00:25:19.773Z,12.20
2019-01-08T00:28:24.626Z,11.30
2019-01-08T00:31:29.440Z,11.33
2019-01-08T00:34:34.296Z,10.30
2019-01-08T00:37:39.138Z,10.83
2019-01-08T00:40:43.969Z,11.20
2019-01-08T00:43:48.801Z,10.73
2019-01-08T00:46:53.637Z,10.03
2019-01-08T00:49:58.506Z,10.17
2019-01-08T00:53:03.578Z,10.27
2019-01-08T00:56:08.683Z,10.07
2019-01-08T00:59:13.552Z,11.20
2019-01-08T01:02:18.426Z,10.17
2019-01-08T01:05:23.253Z,9.20
2019-01-08T01:08:28.094Z,9.60
2019-01-08T01:11:32.986Z,9.17
2019-01-08T01:14:37.799Z,10.33
2019-01-08T01:17:42.656Z,9.60
2019-01-08T01:20:47.572Z,9.00
2019-01-08T01:23:52.392Z,10.20
2019-01-08T01:26:57.209Z,10.60
2019-01-08T01:30:02.054Z,8.27
2019-01-08T01:33:06.866Z,8.75
2019-01-08T01:36:11.698Z,8.50
2019-01-08T01:39:16.543Z,7.97
2019-01-08T01:42:21.382Z,8.97
2019-01-08T01:45:26.258Z,9.07
2019-01-08T01:48:31.158Z,8.67
2019-01-08T01:51:35.979Z,8.63
2019-01-08T01:54:40.817Z,8.77
2019-01-08T01:57:45.651Z,7.30
2019-01-08T02:00:50.518Z,7.73
2019-01-08T02:03:55.310Z,7.83
2019-01-08T02:07:00.157Z,8.10
2019-01-08T02:10:06.831Z,7.83
2019-01-08T02:13:11.654Z,8.20
2019-01-08T02:16:16.510Z,8.10
2019-01-08T02:19:21.366Z,8.10
2019-01-08T02:22:26.213Z,8.03
2019-01-08T02:25:31.035Z,7.70
2019-01-08T02:28:36.435Z,8.13
2019-01-08T02:31:41.267Z,8.43
2019-01-08T02:34:46.179Z,7.90
2019-01-08T02:37:51.025Z,8.07
2019-01-08T02:40:55.872Z,8.10
2019-01-08T02:44:00.750Z,7.63
2019-01-08T02:47:05.615Z,8.20
2019-01-08T02:50:10.418Z,8.50
2019-01-08T02:53:15.266Z,8.33
2019-01-08T02:56:20.077Z,8.67
2019-01-08T02:59:25.584Z,9.33
2019-01-08T03:02:30.413Z,8.70
2019-01-08T03:05:35.252Z,7.70
2019-01-08T03:08:40.089Z,8.97
2019-01-08T03:11:44.937Z,8.43
2019-01-08T03:14:50.005Z,7.90
2019-01-08T03:17:54.821Z,7.90
2019-01-08T03:20:59.662Z,7.93
2019-01-08T03:24:04.510Z,7.60
2019-01-08T03:27:09.420Z,7.53
2019-01-08T03:30:14.251Z,7.30
2019-01-08T03:33:19.097Z,7.80
2019-01-08T03:36:24.875Z,7.50
2019-01-08T03:39:29.934Z,7.80
2019-01-08T03:42:34.757Z,7.77
2019-01-08T03:45:39.557Z,7.33
2019-01-08T03:48:44.426Z,7.10
2019-01-08T03:51:49.486Z,7.23
2019-01-08T03:54:54.326Z,7.53
2019-01-08T03:57:59.166Z,7.37
2019-01-08T04:01:04.990Z,7.53
2019-01-08T04:04:09.822Z,6.80
2019-01-08T04:07:14.693Z,6.47
2019-01-08T04:10:19.553Z,6.30
2019-01-08T04:13:24.425Z,6.40
2019-01-08T04:16:29.266Z,6.63
2019-01-08T04:19:34.098Z,6.22
2019-01-08T04:22:38.951Z,6.53
2019-01-08T04:25:43.795Z,6.43
2019-01-08T04:28:48.616Z,6.60
2019-01-08T04:31:53.552Z,6.30
2019-01-08T04:34:58.412Z,6.73
2019-01-08T04:38:03.227Z,6.73
2019-01-08T04:41:08.055Z,7.17
2019-01-08T04:44:12.870Z,6.77
2019-01-08T04:47:17.725Z,6.37
2019-01-08T04:50:22.525Z,6.20
2019-01-08T04:53:27.377Z,5.97
2019-01-08T04:56:32.181Z,5.77
2019-01-08T04:59:37.035Z,5.93
2019-01-08T05:02:41.887Z,5.58
2019-01-08T05:05:46.799Z,5.43
2019-01-08T05:08:51.607Z,5.13
2019-01-08T05:11:56.465Z,5.30
2019-01-08T05:15:01.364Z,5.17
2019-01-08T05:18:06.191Z,5.03
2019-01-08T05:21:10.995Z,5.30
2019-01-08T05:24:15.808Z,5.27
2019-01-08T05:27:20.659Z,4.67
2019-01-08T05:30:25.546Z,4.83
2019-01-08T05:33:30.424Z,5.13
2019-01-08T05:36:35.347Z,4.80
2019-01-08T05:39:40.943Z,5.27
2019-01-08T05:42:45.729Z,5.70
2019-01-08T05:45:50.550Z,5.07
2019-01-08T05:48:55.363Z,5.20
2019-01-08T05:52:01.199Z,5.27
2019-01-08T05:55:06.060Z,4.90
2019-01-08T05:58:10.972Z,5.43
2019-01-08T06:01:15.866Z,5.60
2019-01-08T06:04:20.725Z,5.93
2019-01-08T06:07:25.700Z,5.67
2019-01-08T06:10:30.558Z,4.70
2019-01-08T06:13:35.428Z,4.83
2019-01-08T06:16:40.238Z,4.33
2019-01-08T06:19:45.070Z,4.87
2019-01-08T06:22:49.891Z,4.30
2019-01-08T06:25:55.655Z,4.77
2019-01-08T06:29:00.461Z,3.87
2019-01-08T06:32:05.323Z,4.40
2019-01-08T06:35:10.131Z,4.07
2019-01-08T06:38:15.386Z,4.77
2019-01-08T06:41:20.350Z,5.10
2019-01-08T06:44:25.240Z,4.53
2019-01-08T06:47:30.292Z,5.80
2019-01-08T06:50:35.187Z,4.97
2019-01-08T06:53:40.011Z,5.00
2019-01-08T06:56:44.843Z,4.50
2019-01-08T06:59:49.729Z,4.50
2019-01-08T07:02:54.575Z,4.90
2019-01-08T07:05:59.490Z,4.37
2019-01-08T07:09:05.366Z,5.10
2019-01-08T07:12:10.290Z,4.10
2019-01-08T07:15:15.136Z,4.47
2019-01-08T07:18:19.958Z,4.83
2019-01-08T07:21:24.845Z,5.00
2019-01-08T07:24:29.682Z,4.83
2019-01-08T07:27:34.608Z,4.33
2019-01-08T07:30:41.722Z,4.35
2019-01-08T07:33:46.427Z,4.40
2019-01-08T07:36:51.262Z,4.57
2019-01-08T07:39:56.073Z,4.50
2019-01-08T07:43:00.906Z,4.13
2019-01-08T07:46:05.746Z,4.55
2019-01-08T07:49:10.763Z,4.27
2019-01-08T07:52:15.682Z,4.73
2019-01-08T07:55:20.506Z,5.07
2019-01-08T07:58:25.342Z,4.60
2019-01-08T08:01:30.209Z,4.77
2019-01-08T08:04:36.011Z,4.40
2019-01-08T08:07:40.900Z,4.90
2019-01-08T08:10:45.811Z,4.80
2019-01-08T08:13:50.621Z,4.90
2019-01-08T08:16:55.474Z,4.60
2019-01-08T08:20:00.308Z,4.67
2019-01-08T08:23:05.229Z,4.30
2019-01-08T08:26:10.075Z,4.37
2019-01-08T08:29:14.886Z,3.50
2019-01-08T08:32:19.741Z,4.60
2019-01-08T08:35:25.114Z,3.72
2019-01-08T08:38:29.954Z,3.43
2019-01-08T08:41:34.758Z,4.40
2019-01-08T08:44:39.604Z,4.30
2019-01-08T08:47:44.406Z,4.30
2019-01-08T08:50:49.259Z,4.40
2019-01-08T08:53:54.050Z,3.47
2019-01-08T08:56:58.898Z,4.03
2019-01-08T09:00:04.090Z,4.70
2019-01-08T09:03:09.026Z,4.57
2019-01-08T09:06:13.952Z,4.27
2019-01-08T09:09:18.833Z,4.23
2019-01-08T09:12:23.690Z,4.13
2019-01-08T09:15:28.503Z,3.90
2019-01-08T09:18:33.772Z,4.33
2019-01-08T09:21:38.690Z,4.20
2019-01-08T09:24:43.532Z,3.50
2019-01-08T09:27:48.420Z,3.57
2019-01-08T09:30:53.257Z,4.10
2019-01-08T09:33:58.095Z,4.30
2019-01-08T09:37:02.950Z,3.40
2019-01-08T09:40:07.850Z,4.00
2019-01-08T09:43:12.791Z,3.80
2019-01-08T09:46:17.588Z,3.60
2019-01-08T09:49:22.411Z,3.90
2019-01-08T09:52:27.242Z,3.23
2019-01-08T09:55:32.130Z,4.40
2019-01-08T09:58:36.963Z,3.73
2019-01-08T10:01:41.839Z,3.73
2019-01-08T10:04:46.728Z,3.77
2019-01-08T10:07:51.634Z,3.40
2019-01-08T10:10:56.508Z,3.20
2019-01-08T10:14:01.395Z,3.30
2019-01-08T10:17:06.308Z,3.73
2019-01-08T10:20:11.177Z,3.30
2019-01-08T10:23:16.138Z,3.33
2019-01-08T10:26:21.049Z,3.10
2019-01-08T10:29:25.885Z,4.17
2019-01-08T10:32:30.738Z,3.87
2019-01-08T10:35:35.647Z,3.50
2019-01-08T10:38:40.462Z,3.43
2019-01-08T10:41:45.276Z,3.10
2019-01-08T10:44:50.094Z,3.13
2019-01-08T10:47:54.948Z,3.27
2019-01-08T10:50:59.862Z,2.93
2019-01-08T10:54:04.893Z,3.50
2019-01-08T10:57:09.710Z,2.97
2019-01-08T11:00:14.524Z,3.08
2019-01-08T11:03:19.362Z,2.93
2019-01-08T11:06:24.193Z,3.73
2019-01-08T11:09:30.085Z,3.13
2019-01-08T11:12:34.979Z,3.50
2019-01-08T11:15:39.796Z,3.20
2019-01-08T11:18:44.635Z,3.60
2019-01-08T11:21:50.387Z,3.83
2019-01-08T11:24:55.202Z,2.90
2019-01-08T11:28:00.018Z,2.80
2019-01-08T11:31:04.867Z,3.07
2019-01-08T11:34:10.566Z,2.70
2019-01-08T11:37:15.441Z,2.70
2019-01-08T11:40:20.416Z,2.40
2019-01-08T11:43:25.331Z,2.90
2019-01-08T11:46:30.172Z,3.30
2019-01-08T11:49:35.425Z,2.90
2019-01-08T11:52:41.310Z,2.98
2019-01-08T11:55:46.102Z,2.97
2019-01-08T11:58:50.918Z,2.70
2019-01-08T12:01:57.422Z,2.63
2019-01-08T12:05:02.541Z,3.23
2019-01-08T12:08:07.406Z,3.10
2019-01-08T12:11:12.214Z,3.30
2019-01-08T12:14:17.062Z,2.90
2019-01-08T12:17:21.944Z,2.60
2019-01-08T12:20:26.799Z,2.60
2019-01-08T12:23:32.422Z,2.58
2019-01-08T12:26:37.280Z,2.50
2019-01-08T12:29:42.106Z,2.60
2019-01-08T12:32:46.978Z,2.43
2019-01-08T12:35:51.798Z,2.90
2019-01-08T12:38:56.646Z,2.80
2019-01-08T12:42:01.448Z,2.83
2019-01-08T12:45:06.739Z,2.47
2019-01-08T12:48:11.537Z,3.07
2019-01-08T12:51:16.388Z,2.90
2019-01-08T12:54:21.307Z,2.70
2019-01-08T12:57:26.379Z,2.75
2019-01-08T13:00:31.250Z,3.00
2019-01-08T13:03:36.090Z,2.93
2019-01-08T13:06:40.977Z,3.20
2019-01-08T13:09:45.868Z,3.27
2019-01-08T13:12:50.761Z,3.20
2019-01-08T13:15:55.608Z,3.43
2019-01-08T13:19:00.547Z,3.60
2019-01-08T13:22:05.434Z,3.33
2019-01-08T13:25:10.240Z,3.33
2019-01-08T13:28:15.079Z,3.77
2019-01-08T13:31:19.911Z,3.23
2019-01-08T13:34:24.754Z,3.00
2019-01-08T13:37:29.578Z,3.23
2019-01-08T13:40:34.428Z,2.63
2019-01-08T13:43:39.351Z,3.07
2019-01-08T13:46:44.222Z,3.07
2019-01-08T13:49:49.026Z,2.50
2019-01-08T13:52:53.874Z,2.60
2019-01-08T13:55:58.702Z,2.77
2019-01-08T13:59:03.593Z,3.53
2019-01-08T14:02:08.412Z,2.63
2019-01-08T14:05:13.300Z,3.30
2019-01-08T14:08:18.123Z,3.03
2019-01-08T14:11:22.931Z,2.97
2019-01-08T14:14:27.743Z,3.67
2019-01-08T14:17:32.611Z,2.80
2019-01-08T14:20:38.442Z,2.77
2019-01-08T14:23:43.346Z,2.73
2019-01-08T14:26:48.244Z,2.60
2019-01-08T14:29:53.066Z,2.47
2019-01-08T14:32:57.957Z,2.30
2019-01-08T14:36:02.751Z,2.40
2019-01-08T14:39:08.292Z,2.47
2019-01-08T14:42:13.122Z,2.50
2019-01-08T14:45:18.009Z,2.63
2019-01-08T14:48:22.839Z,2.35
2019-01-08T14:51:27.657Z,2.83
2019-01-08T14:54:32.570Z,3.10
2019-01-08T14:57:37.454Z,2.53
2019-01-08T15:00:42.359Z,2.47
2019-01-08T15:03:47.440Z,2.87
2019-01-08T15:06:52.275Z,2.80
2019-01-08T15:09:57.119Z,2.90
2019-01-08T15:13:01.932Z,2.90
2019-01-08T15:16:07.720Z,2.50
2019-01-08T15:19:12.562Z,2.90
2019-01-08T15:22:17.397Z,2.27
2019-01-08T15:25:22.242Z,2.70
2019-01-08T15:28:27.165Z,2.67
2019-01-08T15:31:31.981Z,2.87
2019-01-08T15:34:36.900Z,2.73
2019-01-08T15:37:41.738Z,3.30
2019-01-08T15:40:46.579Z,3.03
2019-01-08T15:43:51.410Z,3.17
2019-01-08T15:46:56.259Z,3.00
2019-01-08T15:50:01.062Z,3.27
2019-01-08T15:53:05.885Z,3.23
2019-01-08T15:56:10.794Z,4.00
2019-01-08T15:59:15.639Z,4.07
2019-01-08T16:02:20.481Z,4.50
2019-01-08T16:05:25.325Z,4.67
2019-01-08T16:08:30.179Z,4.07
2019-01-08T16:11:34.999Z,4.83
2019-01-08T16:14:39.810Z,4.50
2019-01-08T16:17:44.623Z,4.70
2019-01-08T16:20:49.486Z,4.12
2019-01-08T16:23:54.362Z,3.87
2019-01-08T16:26:59.199Z,3.67
2019-01-08T16:30:05.475Z,3.47
2019-01-08T16:33:15.969Z,3.90
2019-01-08T16:36:16.837Z,4.30
2019-01-08T16:39:21.719Z,3.93
2019-01-08T16:42:26.537Z,4.03
2019-01-08T16:45:31.353Z,3.67
2019-01-08T16:48:36.203Z,3.00
2019-01-08T16:51:41.008Z,3.37
2019-01-08T16:54:45.839Z,3.00
2019-01-08T16:57:50.680Z,3.40
2019-01-08T17:00:55.557Z,3.23
2019-01-08T17:04:00.509Z,3.33
2019-01-08T17:07:05.383Z,3.47
2019-01-08T17:10:10.181Z,3.13
2019-01-08T17:13:16.615Z,3.20
2019-01-08T17:16:21.471Z,3.50
2019-01-08T17:19:27.274Z,3.80
2019-01-08T17:22:32.119Z,3.30
2019-01-08T17:25:37.054Z,3.47
2019-01-08T17:28:41.907Z,3.30
2019-01-08T17:31:46.894Z,3.00
2019-01-08T17:34:51.880Z,3.03
2019-01-08T17:37:56.801Z,2.97
2019-01-08T17:41:01.797Z,3.17
2019-01-08T17:44:06.607Z,2.87
2019-01-08T17:47:11.478Z,3.77
2019-01-08T17:50:16.344Z,3.13
2019-01-08T17:53:21.206Z,3.50
2019-01-08T17:56:26.112Z,3.13
2019-01-08T17:59:31.300Z,2.80
2019-01-08T18:02:36.519Z,3.20
2019-01-08T18:05:41.463Z,2.80
2019-01-08T18:08:46.294Z,3.20
2019-01-08T18:11:51.278Z,3.53
2019-01-08T18:14:56.265Z,3.50
2019-01-08T18:18:01.092Z,3.83
2019-01-08T18:21:06.028Z,3.23
2019-01-08T18:24:10.937Z,3.50
2019-01-08T18:27:15.770Z,3.03
2019-01-08T18:30:20.738Z,3.10
2019-01-08T18:33:25.590Z,3.33
2019-01-08T18:36:30.665Z,3.27
2019-01-08T18:39:35.574Z,3.20
2019-01-08T18:42:40.473Z,2.80
2019-01-08T18:45:45.456Z,3.30
2019-01-08T18:48:50.591Z,2.50
2019-01-08T18:51:55.477Z,2.93
2019-01-08T18:55:01.419Z,3.00
2019-01-08T18:58:06.254Z,2.90
2019-01-08T19:01:11.077Z,2.93
2019-01-08T19:04:15.927Z,2.80
2019-01-08T19:07:21.471Z,2.83
2019-01-08T19:10:26.291Z,2.90
2019-01-08T19:13:31.131Z,3.00
2019-01-08T19:16:35.937Z,3.20
2019-01-08T19:19:42.674Z,2.90
2019-01-08T19:22:47.559Z,3.10
2019-01-08T19:25:52.425Z,3.00
2019-01-08T19:28:57.340Z,3.27
2019-01-08T19:32:02.239Z,3.03
2019-01-08T19:35:07.122Z,3.20
2019-01-08T19:38:11.950Z,3.10
2019-01-08T19:41:16.798Z,3.00
2019-01-08T19:44:21.749Z,3.10
2019-01-08T19:47:26.620Z,2.90
2019-01-08T19:50:31.433Z,3.23
2019-01-08T19:53:36.303Z,3.77
2019-01-08T19:56:41.139Z,3.30
2019-01-08T19:59:45.945Z,3.20
2019-01-08T20:02:50.772Z,2.97
2019-01-08T20:05:55.597Z,3.53
2019-01-08T20:09:00.434Z,3.20
2019-01-08T20:12:05.288Z,3.00
2019-01-08T20:15:10.199Z,3.10
2019-01-08T20:18:15.926Z,3.47
2019-01-08T20:21:20.852Z,3.03
2019-01-08T20:24:25.657Z,2.90
2019-01-08T20:27:32.521Z,3.30
2019-01-08T20:30:37.058Z,2.97
2019-01-08T20:33:41.966Z,2.80
2019-01-08T20:36:46.866Z,3.20
2019-01-08T20:39:54.706Z,3.23
2019-01-08T20:42:59.508Z,3.23
2019-01-08T20:46:04.350Z,3.10
2019-01-08T20:49:09.164Z,2.93
2019-01-08T20:52:14.015Z,2.90
2019-01-08T20:55:18.928Z,2.90
2019-01-08T20:58:28.606Z,3.33
2019-01-08T21:01:31.258Z,3.10
2019-01-08T21:04:36.999Z,3.17
2019-01-08T21:07:41.878Z,3.20
2019-01-08T21:10:46.733Z,3.10
2019-01-08T21:13:51.578Z,3.30
2019-01-08T21:16:56.943Z,4.43
2019-01-08T21:20:01.794Z,3.93
2019-01-08T21:23:06.653Z,4.27
2019-01-08T21:26:11.587Z,4.20
2019-01-08T21:29:16.975Z,4.53
2019-01-08T21:32:21.817Z,3.50
2019-01-08T21:35:26.701Z,4.07
2019-01-08T21:38:31.514Z,3.67
2019-01-08T21:41:36.418Z,4.33
2019-01-08T21:44:41.264Z,3.42
2019-01-08T21:47:46.118Z,3.97
2019-01-08T21:50:51.024Z,3.30
2019-01-08T21:53:55.903Z,3.47
2019-01-08T21:57:00.813Z,3.30
2019-01-08T22:00:08.776Z,4.12
2019-01-08T22:03:14.335Z,3.30
2019-01-08T22:06:19.226Z,2.97
2019-01-08T22:09:25.018Z,3.50
2019-01-08T22:12:29.870Z,3.70
2019-01-08T22:15:34.678Z,3.80
2019-01-08T22:18:39.499Z,4.10
2019-01-08T22:21:44.310Z,4.40
2019-01-08T22:24:49.212Z,3.90
2019-01-08T22:27:54.025Z,3.93
2019-01-08T22:30:59.814Z,3.25
2019-01-08T22:34:04.655Z,3.30
2019-01-08T22:37:09.554Z,3.15
2019-01-08T22:40:14.391Z,3.00
2019-01-08T22:43:19.189Z,2.93
2019-01-08T22:46:24.030Z,3.37
2019-01-08T22:49:28.860Z,3.30
2019-01-08T22:52:34.907Z,3.47
2019-01-08T23:27:42.002Z,3.60
2019-01-08T23:30:46.928Z,3.73
2019-01-08T23:33:51.752Z,3.80
2019-01-08T23:36:56.575Z,3.30
2019-01-08T23:40:01.441Z,3.40
2019-01-08T23:43:06.345Z,3.43
2019-01-08T23:46:11.219Z,3.40
2019-01-08T23:49:16.059Z,3.63
2019-01-08T23:52:29.686Z,3.30
2019-01-08T23:55:37.131Z,3.70
2019-01-08T23:58:41.986Z,3.33
